createdAt,value
2017-03-16T00:00:10.900Z,3.62
2017-03-16T00:01:20.150Z,3.48
2017-03-16T00:02:29.246Z,3.45
2017-03-16T00:03:37.932Z,3.45
2017-03-16T00:04:46.583Z,3.55
2017-03-16T00:05:55.299Z,3.43
2017-03-16T00:07:04.553Z,3.39
2017-03-16T00:08:13.206Z,3.39
2017-03-16T00:09:22.104Z,3.21
2017-03-16T00:10:31.349Z,3.13
2017-03-16T00:11:40.307Z,3.08
2017-03-16T00:12:48.961Z,2.87
2017-03-16T00:13:57.701Z,2.78
2017-03-16T00:15:06.359Z,2.74
2017-03-16T00:16:15.402Z,2.78
2017-03-16T00:17:24.355Z,2.67
2017-03-16T00:18:33.331Z,2.64
2017-03-16T00:19:41.985Z,2.56
2017-03-16T00:20:50.974Z,2.52
2017-03-16T00:22:00.525Z,2.52
2017-03-16T00:23:09.183Z,2.36
2017-03-16T00:24:18.133Z,2.31
2017-03-16T00:25:26.783Z,2.3
2017-03-16T00:26:35.435Z,2.31
2017-03-16T00:27:44.391Z,2.42
2017-03-16T00:28:53.044Z,2.24
2017-03-16T00:30:01.781Z,2.24
2017-03-16T00:31:10.439Z,2.28
2017-03-16T00:32:19.091Z,2.21
2017-03-16T00:33:27.788Z,2.24
2017-03-16T00:34:36.439Z,2.41
2017-03-16T00:35:45.388Z,2.36
2017-03-16T00:36:54.651Z,2.49
2017-03-16T00:38:03.860Z,2.57
2017-03-16T00:39:12.536Z,2.69
2017-03-16T00:40:21.189Z,2.87
2017-03-16T00:41:29.841Z,2.82
2017-03-16T00:42:38.488Z,2.93
2017-03-16T00:43:47.214Z,2.95
2017-03-16T00:44:56.160Z,2.87
2017-03-16T00:46:05.111Z,2.9
2017-03-16T00:47:13.772Z,2.87
2017-03-16T00:48:22.425Z,2.84
2017-03-16T00:49:31.376Z,2.79
2017-03-16T00:50:40.104Z,2.74
2017-03-16T00:51:48.873Z,2.59
2017-03-16T00:52:57.561Z,2.59
2017-03-16T00:54:06.516Z,2.53
2017-03-16T00:55:15.727Z,2.42
2017-03-16T00:56:24.700Z,2.43
2017-03-16T00:57:33.366Z,2.42
2017-03-16T00:58:42.014Z,2.36
2017-03-16T00:59:50.963Z,2.56
2017-03-16T01:00:59.629Z,2.67
2017-03-16T01:02:08.580Z,2.93
2017-03-16T01:03:17.445Z,2.93
2017-03-16T01:04:26.095Z,2.97
2017-03-16T01:05:34.740Z,3.11
2017-03-16T01:06:44.018Z,3.2
2017-03-16T01:07:53.265Z,3.26
2017-03-16T01:09:02.215Z,3.26
2017-03-16T01:10:10.926Z,3.23
2017-03-16T01:11:19.608Z,3.24
2017-03-16T01:12:28.568Z,3.26
2017-03-16T01:13:37.541Z,3.28
2017-03-16T01:14:46.493Z,3.24
2017-03-16T01:15:55.578Z,3.18
2017-03-16T01:17:04.961Z,3.13
2017-03-16T01:18:13.947Z,3.15
2017-03-16T01:19:22.921Z,3.06
2017-03-16T01:20:31.873Z,3
2017-03-16T01:21:40.523Z,2.9
2017-03-16T01:22:49.839Z,2.84
2017-03-16T01:23:59.394Z,2.81
2017-03-16T01:25:08.347Z,2.72
2017-03-16T01:26:17.333Z,2.56
2017-03-16T01:27:25.986Z,2.56
2017-03-16T01:28:35.155Z,2.53
2017-03-16T01:29:43.894Z,2.57
2017-03-16T01:30:53.336Z,2.6
2017-03-16T01:32:02.292Z,2.72
2017-03-16T01:33:10.945Z,2.79
2017-03-16T01:34:20.106Z,2.81
2017-03-16T01:35:29.310Z,2.72
2017-03-16T01:36:38.276Z,2.56
2017-03-16T01:37:46.926Z,2.53
2017-03-16T01:38:56.476Z,2.41
2017-03-16T01:40:05.464Z,2.53
2017-03-16T01:41:14.418Z,2.46
2017-03-16T01:42:23.130Z,2.35
2017-03-16T01:43:31.800Z,2.41
2017-03-16T01:44:40.491Z,2.3
2017-03-16T01:45:49.455Z,2.35
2017-03-16T01:46:58.668Z,2.39
2017-03-16T01:48:07.336Z,2.43
2017-03-16T01:49:16.297Z,2.59
2017-03-16T01:50:25.593Z,2.64
2017-03-16T01:51:34.716Z,2.71
2017-03-16T01:52:43.963Z,2.71
2017-03-16T01:53:53.541Z,2.71
2017-03-16T01:55:02.190Z,2.67
2017-03-16T01:56:10.850Z,2.67
2017-03-16T01:57:19.840Z,2.57
2017-03-16T01:58:28.791Z,2.45
2017-03-16T01:59:37.756Z,2.31
2017-03-16T02:00:47.011Z,2.34
2017-03-16T02:01:55.966Z,2.34
2017-03-16T02:03:04.615Z,2.34
2017-03-16T02:04:13.815Z,2.49
2017-03-16T02:05:22.474Z,2.54
2017-03-16T02:06:31.260Z,2.59
2017-03-16T02:07:39.966Z,2.71
2017-03-16T02:08:49.226Z,2.77
2017-03-16T02:09:58.559Z,2.74
2017-03-16T02:11:07.805Z,2.69
2017-03-16T02:12:16.457Z,2.67
2017-03-16T02:13:25.713Z,2.63
2017-03-16T02:14:34.378Z,2.72
2017-03-16T02:15:43.031Z,2.67
2017-03-16T02:16:51.691Z,2.71
2017-03-16T02:18:00.361Z,2.66
2017-03-16T02:19:09.619Z,2.71
2017-03-16T02:20:18.571Z,2.61
2017-03-16T02:21:28.376Z,2.52
2017-03-16T02:22:37.030Z,2.46
2017-03-16T02:23:45.982Z,2.49
2017-03-16T02:24:54.635Z,2.45
2017-03-16T02:26:03.286Z,2.46
2017-03-16T02:27:11.980Z,2.38
2017-03-16T02:28:20.957Z,2.49
2017-03-16T02:29:29.921Z,2.45
2017-03-16T02:30:38.582Z,2.48
2017-03-16T02:31:47.888Z,2.39
2017-03-16T02:32:56.786Z,2.38
2017-03-16T02:34:05.795Z,2.46
2017-03-16T02:35:14.460Z,2.36
2017-03-16T02:36:23.417Z,2.38
2017-03-16T02:37:32.109Z,2.34
2017-03-16T02:38:41.422Z,2.39
2017-03-16T02:39:50.433Z,2.36
2017-03-16T02:40:59.381Z,2.35
2017-03-16T02:42:08.332Z,2.38
2017-03-16T02:43:17.285Z,2.35
2017-03-16T02:44:27.442Z,2.48
2017-03-16T02:45:36.397Z,2.45
2017-03-16T02:46:46.019Z,2.39
2017-03-16T02:47:54.982Z,2.53
2017-03-16T02:49:04.321Z,2.67
2017-03-16T02:50:13.230Z,2.59
2017-03-16T02:51:21.880Z,2.71
2017-03-16T02:52:30.833Z,2.66
2017-03-16T02:53:39.784Z,2.67
2017-03-16T02:54:48.592Z,2.67
2017-03-16T02:55:57.887Z,2.64
2017-03-16T02:57:06.554Z,2.77
2017-03-16T02:58:15.509Z,2.79
2017-03-16T02:59:24.888Z,2.85
2017-03-16T03:00:33.970Z,2.9
2017-03-16T03:01:42.720Z,2.87
2017-03-16T03:02:52.014Z,2.79
2017-03-16T03:04:00.979Z,2.85
2017-03-16T03:05:10.796Z,2.75
2017-03-16T03:06:19.455Z,2.79
2017-03-16T03:07:28.973Z,2.82
2017-03-16T03:08:37.926Z,2.82
2017-03-16T03:09:46.889Z,2.89
2017-03-16T03:10:56.224Z,2.89
2017-03-16T03:12:04.885Z,2.95
2017-03-16T03:13:13.539Z,2.85
2017-03-16T03:14:22.531Z,2.81
2017-03-16T03:15:31.783Z,2.64
2017-03-16T03:16:41.083Z,2.64
2017-03-16T03:17:50.057Z,2.43
2017-03-16T03:18:58.973Z,2.28
2017-03-16T03:20:08.284Z,2.35
2017-03-16T03:21:16.940Z,2.28
2017-03-16T03:22:25.596Z,2.27
2017-03-16T03:23:34.257Z,2.18
2017-03-16T03:24:43.216Z,2.09
2017-03-16T03:25:52.168Z,2.09
2017-03-16T03:27:01.118Z,2.1
2017-03-16T03:28:09.794Z,2.12
2017-03-16T03:29:18.854Z,2.09
2017-03-16T03:30:28.117Z,2.14
2017-03-16T03:31:36.766Z,2.14
2017-03-16T03:32:46.018Z,2.24
2017-03-16T03:33:55.267Z,2.3
2017-03-16T03:35:04.218Z,2.36
2017-03-16T03:36:13.492Z,2.31
2017-03-16T03:37:22.753Z,2.36
2017-03-16T03:38:32.003Z,2.45
2017-03-16T03:39:41.271Z,2.52
2017-03-16T03:40:50.235Z,2.59
2017-03-16T03:41:59.482Z,2.57
2017-03-16T03:43:08.479Z,2.57
2017-03-16T03:44:17.135Z,2.45
2017-03-16T03:45:26.093Z,2.42
2017-03-16T03:46:34.802Z,2.45
2017-03-16T03:47:44.007Z,2.21
2017-03-16T03:48:52.685Z,2.17
2017-03-16T03:50:02.245Z,2.16
2017-03-16T03:51:11.541Z,2.14
2017-03-16T03:52:20.191Z,2.16
2017-03-16T03:53:29.147Z,2.1
2017-03-16T03:54:37.797Z,2.1
2017-03-16T03:55:46.752Z,2.14
2017-03-16T03:56:55.404Z,2.2
2017-03-16T03:58:04.654Z,2.12
2017-03-16T03:59:13.304Z,2
2017-03-16T04:00:21.961Z,1.95
2017-03-16T04:01:30.615Z,2.05
2017-03-16T04:02:39.565Z,2.05
2017-03-16T04:03:48.520Z,2.12
2017-03-16T04:04:57.732Z,2.06
2017-03-16T04:06:07.582Z,2.03
2017-03-16T04:07:16.237Z,2
2017-03-16T04:08:25.785Z,1.99
2017-03-16T04:09:34.731Z,2.02
2017-03-16T04:10:43.381Z,2.05
2017-03-16T04:11:52.935Z,2.05
2017-03-16T04:13:01.585Z,2.12
2017-03-16T04:14:11.136Z,1.99
2017-03-16T04:15:20.091Z,2
2017-03-16T04:16:28.998Z,2.09
2017-03-16T04:17:38.248Z,2.09
2017-03-16T04:18:46.897Z,2.21
2017-03-16T04:19:56.447Z,2.17
2017-03-16T04:21:05.096Z,2.28
2017-03-16T04:22:13.757Z,2.25
2017-03-16T04:23:22.408Z,2.31
2017-03-16T04:24:31.359Z,2.39
2017-03-16T04:25:40.302Z,2.36
2017-03-16T04:26:49.555Z,2.42
2017-03-16T04:27:58.502Z,2.49
2017-03-16T04:29:07.756Z,2.56
2017-03-16T04:30:16.709Z,2.53
2017-03-16T04:31:25.962Z,2.61
2017-03-16T04:32:35.215Z,2.56
2017-03-16T04:33:43.862Z,2.52
2017-03-16T04:34:52.518Z,2.53
2017-03-16T04:36:01.468Z,2.42
2017-03-16T04:37:10.716Z,2.42
2017-03-16T04:38:19.667Z,2.28
2017-03-16T04:39:28.317Z,2.21
2017-03-16T04:40:37.569Z,2.14
2017-03-16T04:41:46.213Z,2.05
2017-03-16T04:42:54.871Z,1.95
2017-03-16T04:44:03.827Z,1.73
2017-03-16T04:45:12.779Z,1.66
2017-03-16T04:46:21.456Z,1.6
2017-03-16T04:47:30.717Z,1.55
2017-03-16T04:48:39.674Z,1.62
2017-03-16T04:49:48.330Z,1.42
2017-03-16T04:50:57.850Z,1.45
2017-03-16T04:52:06.803Z,1.34
2017-03-16T04:53:15.758Z,1.16
2017-03-16T04:54:24.717Z,1.15
2017-03-16T04:55:33.666Z,1.18
2017-03-16T04:56:42.319Z,1.06
2017-03-16T04:57:51.277Z,1.02
2017-03-16T04:59:00.526Z,1.04
2017-03-16T05:00:09.174Z,1.05
2017-03-16T05:01:18.127Z,1.04
2017-03-16T05:02:27.077Z,0.98
2017-03-16T05:03:35.729Z,1.05
2017-03-16T05:04:44.680Z,1
2017-03-16T05:05:53.935Z,1.02
2017-03-16T05:07:02.886Z,1.02
2017-03-16T05:08:12.390Z,1
2017-03-16T05:09:21.342Z,0.91
2017-03-16T05:10:30.895Z,0.9
2017-03-16T05:11:39.844Z,0.97
2017-03-16T05:12:48.802Z,0.86
2017-03-16T05:13:58.368Z,1.06
2017-03-16T05:15:07.321Z,0.98
2017-03-16T05:16:16.269Z,1.02
2017-03-16T05:17:24.932Z,1.02
2017-03-16T05:18:34.191Z,1
2017-03-16T05:19:43.696Z,0.98
2017-03-16T05:20:52.646Z,1.06
2017-03-16T05:22:01.599Z,0.97
2017-03-16T05:23:10.559Z,0.98
2017-03-16T05:24:19.818Z,1
2017-03-16T05:25:29.071Z,0.96
2017-03-16T05:26:37.732Z,0.88
2017-03-16T05:27:46.393Z,0.97
2017-03-16T05:28:55.353Z,0.93
2017-03-16T05:30:04.901Z,0.97
2017-03-16T05:31:13.805Z,0.88
2017-03-16T05:32:23.060Z,0.91
2017-03-16T05:33:32.617Z,0.94
2017-03-16T05:34:41.886Z,1.06
2017-03-16T05:35:50.834Z,1.2
2017-03-16T05:36:59.789Z,1.34
2017-03-16T05:38:08.736Z,1.36
2017-03-16T05:39:17.996Z,1.45
2017-03-16T05:40:27.548Z,1.47
2017-03-16T05:41:36.794Z,1.62
2017-03-16T05:42:46.025Z,1.37
2017-03-16T05:43:55.286Z,1.44
2017-03-16T05:45:03.938Z,1.5
2017-03-16T05:46:12.891Z,1.33
2017-03-16T05:47:21.840Z,1.33
2017-03-16T05:48:31.103Z,1.47
2017-03-16T05:49:40.359Z,1.48
2017-03-16T05:50:49.316Z,1.63
2017-03-16T05:51:57.965Z,1.65
2017-03-16T05:53:07.517Z,1.8
2017-03-16T05:54:17.331Z,1.76
2017-03-16T05:55:26.288Z,1.73
2017-03-16T05:56:35.243Z,1.63
2017-03-16T05:57:43.914Z,1.54
2017-03-16T05:58:53.215Z,1.63
2017-03-16T06:00:02.476Z,1.66
2017-03-16T06:01:11.427Z,1.58
2017-03-16T06:02:20.093Z,1.69
2017-03-16T06:03:29.050Z,1.72
2017-03-16T06:04:38.300Z,1.8
2017-03-16T06:05:47.503Z,1.73
2017-03-16T06:06:56.156Z,1.72
2017-03-16T06:08:05.407Z,1.76
2017-03-16T06:09:14.663Z,1.77
2017-03-16T06:10:23.914Z,1.7
2017-03-16T06:11:33.163Z,1.69
2017-03-16T06:12:42.415Z,1.69
2017-03-16T06:13:52.277Z,1.62
2017-03-16T06:15:02.130Z,1.59
2017-03-16T06:16:11.379Z,1.48
2017-03-16T06:17:20.588Z,1.6
2017-03-16T06:18:29.544Z,1.62
2017-03-16T06:19:39.105Z,1.42
2017-03-16T06:20:47.759Z,1.54
2017-03-16T06:21:56.413Z,1.47
2017-03-16T06:23:05.367Z,1.45
2017-03-16T06:24:14.630Z,1.52
2017-03-16T06:25:24.486Z,1.59
2017-03-16T06:26:33.433Z,1.58
2017-03-16T06:27:42.699Z,1.6
2017-03-16T06:28:52.545Z,1.48
2017-03-16T06:30:01.203Z,1.62
2017-03-16T06:31:10.154Z,1.6
2017-03-16T06:32:18.810Z,1.63
2017-03-16T06:33:27.765Z,1.72
2017-03-16T06:34:36.715Z,1.65
2017-03-16T06:35:45.669Z,1.66
2017-03-16T06:36:54.625Z,1.7
2017-03-16T06:38:04.181Z,1.76
2017-03-16T06:39:13.434Z,1.79
2017-03-16T06:40:23.233Z,1.87
2017-03-16T06:41:31.886Z,1.91
2017-03-16T06:42:40.841Z,2.05
2017-03-16T06:43:50.696Z,2.06
2017-03-16T06:44:59.761Z,2.23
2017-03-16T06:46:08.773Z,2.24
2017-03-16T06:47:17.448Z,2.28
2017-03-16T06:48:27.003Z,2.35
2017-03-16T06:49:36.255Z,2.36
2017-03-16T06:50:45.078Z,2.27
2017-03-16T06:51:54.170Z,2.38
2017-03-16T06:53:02.825Z,2.36
2017-03-16T06:54:12.380Z,2.45
2017-03-16T06:55:21.337Z,2.38
2017-03-16T06:56:29.993Z,2.46
2017-03-16T06:57:39.547Z,2.54
2017-03-16T06:58:48.802Z,2.48
2017-03-16T06:59:58.067Z,2.54
2017-03-16T07:01:07.023Z,2.61
2017-03-16T07:02:15.980Z,2.72
2017-03-16T07:03:25.486Z,2.74
2017-03-16T07:04:35.038Z,2.79
2017-03-16T07:05:43.988Z,2.87
2017-03-16T07:06:52.634Z,2.9
2017-03-16T07:08:01.595Z,2.92
2017-03-16T07:09:11.152Z,2.96
2017-03-16T07:10:20.413Z,3.02
2017-03-16T07:11:29.057Z,3.13
2017-03-16T07:12:37.705Z,3.05
2017-03-16T07:13:46.968Z,3.13
2017-03-16T07:14:56.536Z,3.21
2017-03-16T07:16:05.792Z,3.32
2017-03-16T07:17:14.446Z,3.31
2017-03-16T07:18:23.702Z,3.29
2017-03-16T07:19:32.955Z,3.4
2017-03-16T07:20:41.922Z,3.36
2017-03-16T07:21:50.877Z,3.4
2017-03-16T07:23:00.463Z,3.48
2017-03-16T07:24:10.022Z,3.58
2017-03-16T07:25:18.984Z,3.68
2017-03-16T07:26:27.648Z,3.66
2017-03-16T07:27:36.904Z,3.87
2017-03-16T07:28:46.477Z,3.88
2017-03-16T07:29:55.741Z,4.02
2017-03-16T07:31:04.995Z,3.98
2017-03-16T07:32:14.198Z,3.94
2017-03-16T07:33:23.155Z,4.06
2017-03-16T07:34:32.113Z,4.12
2017-03-16T07:35:41.364Z,4.29
2017-03-16T07:36:50.326Z,4.4
2017-03-16T07:37:59.585Z,4.51
2017-03-16T07:39:08.844Z,4.62
2017-03-16T07:40:17.800Z,4.78
2017-03-16T07:41:27.054Z,4.85
2017-03-16T07:42:36.016Z,4.99
2017-03-16T07:43:45.825Z,5.1
2017-03-16T07:44:54.780Z,5.17
2017-03-16T07:46:04.032Z,5.21
2017-03-16T07:47:12.983Z,5.31
2017-03-16T07:48:21.645Z,5.53
2017-03-16T07:49:30.605Z,5.64
2017-03-16T07:50:39.559Z,5.93
2017-03-16T07:51:48.516Z,6.01
2017-03-16T07:52:57.782Z,6.19
2017-03-16T07:54:07.042Z,6.19
2017-03-16T07:55:16.256Z,6.27
2017-03-16T07:56:25.212Z,6.51
2017-03-16T07:57:34.163Z,6.62
2017-03-16T07:58:43.421Z,6.71
2017-03-16T07:59:52.691Z,6.7
2017-03-16T08:01:01.650Z,6.67
2017-03-16T08:02:10.603Z,6.79
2017-03-16T08:03:20.161Z,6.87
2017-03-16T08:04:29.718Z,6.94
2017-03-16T08:05:38.379Z,6.98
2017-03-16T08:06:47.037Z,7.16
2017-03-16T08:07:56.598Z,7.13
2017-03-16T08:09:05.863Z,7.32
2017-03-16T08:10:15.120Z,7.61
2017-03-16T08:11:24.079Z,7.77
2017-03-16T08:12:32.995Z,8.07
2017-03-16T08:13:41.656Z,8.2
2017-03-16T08:14:50.337Z,8.22
2017-03-16T08:15:59.901Z,8.26
2017-03-16T08:17:09.160Z,8.36
2017-03-16T08:18:18.124Z,8.3
2017-03-16T08:19:27.682Z,8.37
2017-03-16T08:20:36.941Z,8.47
2017-03-16T08:21:45.596Z,8.5
2017-03-16T08:22:54.555Z,8.59
2017-03-16T08:24:04.368Z,8.76
2017-03-16T08:25:13.022Z,8.89
2017-03-16T08:26:21.682Z,8.98
2017-03-16T08:27:30.337Z,9.08
2017-03-16T08:28:39.000Z,9.05
2017-03-16T08:29:47.655Z,9.17
2017-03-16T08:30:56.310Z,9.15
2017-03-16T08:32:04.967Z,9.15
2017-03-16T08:33:13.927Z,9.23
2017-03-16T08:34:22.583Z,9.05
2017-03-16T08:35:31.491Z,9.24
2017-03-16T08:36:40.447Z,9.36
2017-03-16T08:37:49.105Z,9.39
2017-03-16T08:38:57.761Z,9.29
2017-03-16T08:40:06.723Z,9.46
2017-03-16T08:41:15.680Z,9.46
2017-03-16T08:42:24.334Z,9.47
2017-03-16T08:43:33.291Z,9.48
2017-03-16T08:44:41.943Z,9.61
2017-03-16T08:45:51.198Z,9.65
2017-03-16T08:47:00.113Z,9.57
2017-03-16T08:48:09.068Z,9.69
2017-03-16T08:49:18.017Z,9.64
2017-03-16T08:50:26.981Z,9.78
2017-03-16T08:51:35.938Z,9.97
2017-03-16T08:52:44.896Z,9.91
2017-03-16T08:53:53.548Z,10.04
2017-03-16T08:55:02.200Z,10.18
2017-03-16T08:56:11.175Z,10.27
2017-03-16T08:57:19.840Z,10.42
2017-03-16T08:58:28.795Z,10.44
2017-03-16T08:59:37.757Z,10.45
2017-03-16T09:00:46.716Z,10.56
2017-03-16T09:01:55.386Z,10.68
2017-03-16T09:03:04.347Z,10.67
2017-03-16T09:04:13.557Z,10.79
2017-03-16T09:05:22.222Z,10.91
2017-03-16T09:06:30.889Z,10.97
2017-03-16T09:07:40.153Z,11.15
2017-03-16T09:08:49.108Z,11.37
2017-03-16T09:09:58.679Z,11.52
2017-03-16T09:11:07.345Z,11.82
2017-03-16T09:12:16.008Z,11.98
2017-03-16T09:13:24.978Z,12.16
2017-03-16T09:14:34.537Z,12.42
2017-03-16T09:15:43.752Z,12.64
2017-03-16T09:16:53.015Z,12.85
2017-03-16T09:18:01.687Z,13.08
2017-03-16T09:19:11.256Z,13.33
2017-03-16T09:20:19.921Z,13.52
2017-03-16T09:21:29.186Z,13.75
2017-03-16T09:22:38.453Z,13.96
2017-03-16T09:23:47.417Z,14.22
2017-03-16T09:24:56.395Z,14.45
2017-03-16T09:26:05.059Z,14.68
2017-03-16T09:27:13.924Z,14.96
2017-03-16T09:28:22.887Z,15.01
2017-03-16T09:29:31.553Z,15.07
2017-03-16T09:30:40.223Z,15.35
2017-03-16T09:31:49.491Z,15.65
2017-03-16T09:32:58.675Z,15.94
2017-03-16T09:34:07.944Z,16.24
2017-03-16T09:35:16.637Z,16.61
2017-03-16T09:36:25.610Z,16.79
2017-03-16T09:37:34.579Z,16.83
2017-03-16T09:38:43.248Z,16.96
2017-03-16T09:39:52.217Z,17.36
2017-03-16T09:41:01.785Z,17.71
2017-03-16T09:42:10.446Z,17.86
2017-03-16T09:43:19.116Z,18.14
2017-03-16T09:44:28.035Z,18.51
2017-03-16T09:45:37.603Z,18.65
2017-03-16T09:46:46.574Z,18.88
2017-03-16T09:47:55.838Z,19.37
2017-03-16T09:49:04.509Z,19.76
2017-03-16T09:50:13.177Z,20.13
2017-03-16T09:51:22.147Z,20.24
2017-03-16T09:52:30.816Z,20.48
2017-03-16T09:53:39.796Z,20.21
2017-03-16T09:54:48.761Z,20.29
2017-03-16T09:55:58.029Z,20.41
2017-03-16T09:57:07.299Z,20.01
2017-03-16T09:58:16.264Z,19.83
2017-03-16T09:59:25.227Z,19.69
2017-03-16T10:00:33.896Z,19.59
2017-03-16T10:01:42.573Z,19.59
2017-03-16T10:02:51.243Z,19.77
2017-03-16T10:03:59.909Z,20.24
2017-03-16T10:05:09.176Z,20.58
2017-03-16T10:06:18.442Z,21.09
2017-03-16T10:07:27.666Z,21.52
2017-03-16T10:08:36.336Z,21.47
2017-03-16T10:09:45.007Z,21.54
2017-03-16T10:10:53.676Z,21.77
2017-03-16T10:12:02.654Z,21.79
2017-03-16T10:13:11.324Z,21.71
2017-03-16T10:14:19.992Z,21.35
2017-03-16T10:15:28.659Z,21.12
2017-03-16T10:16:37.633Z,21.14
2017-03-16T10:17:46.309Z,21.17
2017-03-16T10:18:55.278Z,20.76
2017-03-16T10:20:03.942Z,20.64
2017-03-16T10:21:12.946Z,20.82
2017-03-16T10:22:21.611Z,21.01
2017-03-16T10:23:30.279Z,21.43
2017-03-16T10:24:39.548Z,22.06
2017-03-16T10:25:48.522Z,22.6
2017-03-16T10:26:57.790Z,23.05
2017-03-16T10:28:06.470Z,23.31
2017-03-16T10:29:15.150Z,23.47
2017-03-16T10:30:24.074Z,23.33
2017-03-16T10:31:33.348Z,23.42
2017-03-16T10:32:42.322Z,23.28
2017-03-16T10:33:51.590Z,22.95
2017-03-16T10:35:00.257Z,22.43
2017-03-16T10:36:09.239Z,22.21
2017-03-16T10:37:17.915Z,21.74
2017-03-16T10:38:26.589Z,21.43
2017-03-16T10:39:35.863Z,20.82
2017-03-16T10:40:44.536Z,20.28
2017-03-16T10:41:53.762Z,19.54
2017-03-16T10:43:02.431Z,18.85
2017-03-16T10:44:11.403Z,18.62
2017-03-16T10:45:20.075Z,18.33
2017-03-16T10:46:28.744Z,18.18
2017-03-16T10:47:37.420Z,18.14
2017-03-16T10:48:46.396Z,18
2017-03-16T10:49:55.071Z,17.56
2017-03-16T10:51:04.043Z,17.3
2017-03-16T10:52:13.313Z,16.78
2017-03-16T10:53:21.982Z,16.43
2017-03-16T10:54:30.656Z,16.52
2017-03-16T10:55:39.628Z,16.48
2017-03-16T10:56:48.592Z,16.48
2017-03-16T10:57:57.572Z,16.6
2017-03-16T10:59:06.495Z,16.66
2017-03-16T11:00:15.166Z,16.81
2017-03-16T11:01:23.835Z,16.94
2017-03-16T11:02:33.106Z,17.08
2017-03-16T11:03:41.775Z,17.01
2017-03-16T11:04:50.446Z,16.96
2017-03-16T11:05:59.420Z,16.94
2017-03-16T11:07:08.091Z,17.14
2017-03-16T11:08:17.059Z,17.28
2017-03-16T11:09:25.728Z,17.48
2017-03-16T11:10:34.955Z,17.64
2017-03-16T11:11:43.626Z,17.71
2017-03-16T11:12:52.598Z,18.12
2017-03-16T11:14:01.568Z,18.5
2017-03-16T11:15:10.538Z,18.44
2017-03-16T11:16:19.808Z,18.42
2017-03-16T11:17:28.514Z,18.5
2017-03-16T11:18:37.480Z,18.76
2017-03-16T11:19:46.147Z,18.94
2017-03-16T11:20:54.815Z,19.14
2017-03-16T11:22:04.036Z,19.28
2017-03-16T11:23:13.004Z,19.47
2017-03-16T11:24:21.671Z,19.46
2017-03-16T11:25:30.344Z,19.22
2017-03-16T11:26:39.015Z,19.06
2017-03-16T11:27:47.686Z,18.87
2017-03-16T11:28:56.659Z,18.65
2017-03-16T11:30:05.339Z,18.44
2017-03-16T11:31:14.311Z,18.29
2017-03-16T11:32:22.988Z,18
2017-03-16T11:33:32.259Z,17.9
2017-03-16T11:34:40.932Z,17.74
2017-03-16T11:35:49.927Z,17.51
2017-03-16T11:36:58.603Z,17.25
2017-03-16T11:38:07.579Z,17.07
2017-03-16T11:39:16.548Z,16.88
2017-03-16T11:40:25.214Z,16.64
2017-03-16T11:41:34.182Z,16.52
2017-03-16T11:42:42.852Z,16.6
2017-03-16T11:43:51.817Z,16.79
2017-03-16T11:45:00.786Z,16.79
2017-03-16T11:46:09.459Z,16.83
2017-03-16T11:47:18.426Z,16.79
2017-03-16T11:48:27.097Z,16.71
2017-03-16T11:49:35.766Z,16.79
2017-03-16T11:50:44.679Z,16.79
2017-03-16T11:51:53.648Z,16.81
2017-03-16T11:53:02.913Z,16.79
2017-03-16T11:54:11.584Z,16.75
2017-03-16T11:55:20.254Z,16.75
2017-03-16T11:56:29.532Z,16.78
2017-03-16T11:57:38.512Z,16.82
2017-03-16T11:58:47.181Z,16.96
2017-03-16T11:59:56.449Z,17.14
2017-03-16T12:01:05.417Z,17.07
2017-03-16T12:02:14.592Z,17.07
2017-03-16T12:03:23.261Z,17.04
2017-03-16T12:04:31.932Z,16.76
2017-03-16T12:05:40.906Z,16.58
2017-03-16T12:06:49.874Z,16.24
2017-03-16T12:07:59.386Z,16.17
2017-03-16T12:09:08.355Z,16.05
2017-03-16T12:10:17.017Z,16.09
2017-03-16T12:11:25.686Z,16.24
2017-03-16T12:12:34.651Z,16.34
2017-03-16T12:13:43.321Z,16.58
2017-03-16T12:14:51.990Z,16.58
2017-03-16T12:16:00.658Z,16.64
2017-03-16T12:17:09.945Z,16.68
2017-03-16T12:18:18.610Z,16.71
2017-03-16T12:19:27.523Z,16.7
2017-03-16T12:20:37.097Z,16.81
2017-03-16T12:21:45.762Z,16.88
2017-03-16T12:22:54.727Z,17.06
2017-03-16T12:24:03.394Z,17.01
2017-03-16T12:25:12.056Z,17.14
2017-03-16T12:26:21.022Z,17.16
2017-03-16T12:27:29.683Z,17.12
2017-03-16T12:28:38.349Z,17.19
2017-03-16T12:29:47.013Z,17.23
2017-03-16T12:30:56.231Z,17.21
2017-03-16T12:32:05.499Z,17.25
2017-03-16T12:33:14.469Z,17.37
2017-03-16T12:34:23.134Z,17.55
2017-03-16T12:35:32.094Z,17.52
2017-03-16T12:36:41.066Z,17.81
2017-03-16T12:37:50.338Z,17.79
2017-03-16T12:38:59.303Z,17.82
2017-03-16T12:40:08.279Z,17.93
2017-03-16T12:41:16.945Z,18.05
2017-03-16T12:42:26.463Z,18.03
2017-03-16T12:43:35.126Z,17.99
2017-03-16T12:44:44.093Z,18.11
2017-03-16T12:45:52.750Z,17.99
2017-03-16T12:47:01.423Z,18
2017-03-16T12:48:10.091Z,18
2017-03-16T12:49:19.052Z,17.9
2017-03-16T12:50:27.782Z,17.86
2017-03-16T12:51:36.444Z,17.87
2017-03-16T12:52:45.710Z,17.87
2017-03-16T12:53:54.918Z,18
2017-03-16T12:55:03.887Z,17.92
2017-03-16T12:56:12.851Z,17.9
2017-03-16T12:57:21.516Z,17.93
2017-03-16T12:58:30.481Z,17.77
2017-03-16T12:59:40.000Z,17.7
2017-03-16T13:00:48.963Z,17.72
2017-03-16T13:01:58.539Z,17.7
2017-03-16T13:03:07.204Z,17.77
2017-03-16T13:04:16.172Z,17.92
2017-03-16T13:05:24.843Z,17.79
2017-03-16T13:06:33.509Z,17.72
2017-03-16T13:07:42.175Z,17.64
2017-03-16T13:08:50.839Z,17.62
2017-03-16T13:09:59.799Z,17.49
2017-03-16T13:11:09.022Z,17.63
2017-03-16T13:12:18.024Z,17.64
2017-03-16T13:13:26.986Z,17.78
2017-03-16T13:14:35.948Z,17.75
2017-03-16T13:15:44.919Z,17.82
2017-03-16T13:16:54.489Z,17.84
2017-03-16T13:18:03.153Z,17.68
2017-03-16T13:19:11.824Z,17.66
2017-03-16T13:20:20.798Z,17.77
2017-03-16T13:21:30.060Z,17.86
2017-03-16T13:22:38.979Z,17.74
2017-03-16T13:23:47.942Z,17.72
2017-03-16T13:24:57.205Z,17.84
2017-03-16T13:26:05.872Z,17.78
2017-03-16T13:27:14.837Z,17.75
2017-03-16T13:28:23.800Z,17.79
2017-03-16T13:29:32.757Z,17.82
2017-03-16T13:30:42.022Z,17.75
2017-03-16T13:31:50.682Z,17.74
2017-03-16T13:32:59.642Z,17.86
2017-03-16T13:34:08.903Z,17.9
2017-03-16T13:35:17.869Z,17.97
2017-03-16T13:36:26.831Z,18.14
2017-03-16T13:37:35.490Z,18.35
2017-03-16T13:38:44.449Z,18.36
2017-03-16T13:39:53.712Z,18.42
2017-03-16T13:41:02.373Z,18.27
2017-03-16T13:42:11.336Z,18.29
2017-03-16T13:43:20.297Z,18.21
2017-03-16T13:44:28.956Z,18
2017-03-16T13:45:38.168Z,18.03
2017-03-16T13:46:47.432Z,17.87
2017-03-16T13:47:56.095Z,17.72
2017-03-16T13:49:05.062Z,17.74
2017-03-16T13:50:13.729Z,17.77
2017-03-16T13:51:22.693Z,17.93
2017-03-16T13:52:31.957Z,18.05
2017-03-16T13:53:40.618Z,18.1
2017-03-16T13:54:49.884Z,18.2
2017-03-16T13:55:58.847Z,18.45
2017-03-16T13:57:07.864Z,18.62
2017-03-16T13:58:16.834Z,18.76
2017-03-16T13:59:25.501Z,18.8
2017-03-16T14:00:34.168Z,18.8
2017-03-16T14:01:42.842Z,18.78
2017-03-16T14:02:51.514Z,18.76
2017-03-16T14:04:00.773Z,18.8
2017-03-16T14:05:09.739Z,18.67
2017-03-16T14:06:18.411Z,18.62
2017-03-16T14:07:27.075Z,18.66
2017-03-16T14:08:36.287Z,18.82
2017-03-16T14:09:45.254Z,18.78
2017-03-16T14:10:54.530Z,18.66
2017-03-16T14:12:03.193Z,18.63
2017-03-16T14:13:12.154Z,18.51
2017-03-16T14:14:21.118Z,18.5
2017-03-16T14:15:30.081Z,18.58
2017-03-16T14:16:38.756Z,18.81
2017-03-16T14:17:47.431Z,18.88
2017-03-16T14:18:56.095Z,18.87
2017-03-16T14:20:05.063Z,18.78
2017-03-16T14:21:14.035Z,18.8
2017-03-16T14:22:22.707Z,18.78
2017-03-16T14:23:31.670Z,18.67
2017-03-16T14:24:40.340Z,18.63
2017-03-16T14:25:49.306Z,18.39
2017-03-16T14:26:57.972Z,18.21
2017-03-16T14:28:07.235Z,18.08
2017-03-16T14:29:15.908Z,17.97
2017-03-16T14:30:24.876Z,18.26
2017-03-16T14:31:33.841Z,18.39
2017-03-16T14:32:42.506Z,18.62
2017-03-16T14:33:51.171Z,18.81
2017-03-16T14:35:00.136Z,18.85
2017-03-16T14:36:09.098Z,18.88
2017-03-16T14:37:17.802Z,18.81
2017-03-16T14:38:26.761Z,18.84
2017-03-16T14:39:35.428Z,18.91
2017-03-16T14:40:44.098Z,18.84
2017-03-16T14:41:52.761Z,18.95
2017-03-16T14:43:02.021Z,19.19
2017-03-16T14:44:10.686Z,19.22
2017-03-16T14:45:19.353Z,19.11
2017-03-16T14:46:28.618Z,18.92
2017-03-16T14:47:37.578Z,18.73
2017-03-16T14:48:46.846Z,18.63
2017-03-16T14:49:56.115Z,18.7
2017-03-16T14:51:05.078Z,18.55
2017-03-16T14:52:14.047Z,18.39
2017-03-16T14:53:23.023Z,18.29
2017-03-16T14:54:31.990Z,18.35
2017-03-16T14:55:40.651Z,18.51
2017-03-16T14:56:49.923Z,18.63
2017-03-16T14:57:59.194Z,18.52
2017-03-16T14:59:08.455Z,18.37
2017-03-16T15:00:17.366Z,18.35
2017-03-16T15:01:26.034Z,18.32
2017-03-16T15:02:34.710Z,18.26
2017-03-16T15:03:43.383Z,18.29
2017-03-16T15:04:52.053Z,18.3
2017-03-16T15:06:00.718Z,18.32
2017-03-16T15:07:09.389Z,18.32
2017-03-16T15:08:18.950Z,18.48